sensor_id;sensor_type;location;lat;lon;timestamp;pressure;altitude;pressure_sealevel;temperature;humidity
66547;BME280;53400;50.364;14.874;2022-10-19T00:01:52;99604.22;;;9.68;100.00
66547;BME280;53400;50.364;14.874;2022-10-19T00:04:18;99605.75;;;9.82;100.00
66547;BME280;53400;50.364;14.874;2022-10-19T00:06:46;99599.78;;;9.49;100.00
66547;BME280;53400;50.364;14.874;2022-10-19T00:09:14;99602.88;;;9.46;100.00
66547;BME280;53400;50.364;14.874;2022-10-19T00:11:42;99607.47;;;9.70;100.00
66547;BME280;53400;50.364;14.874;2022-10-19T00:14:12;99607.88;;;9.74;100.00
66547;BME280;53400;50.364;14.874;2022-10-19T00:16:39;99605.28;;;9.60;100.00
66547;BME280;53400;50.364;14.874;2022-10-19T00:19:11;99603.47;;;9.54;100.00
66547;BME280;53400;50.364;14.874;2022-10-19T00:21:37;99607.81;;;9.49;100.00
66547;BME280;53400;50.364;14.874;2022-10-19T00:24:06;99607.00;;;9.48;100.00
66547;BME280;53400;50.364;14.874;2022-10-19T00:26:31;99613.25;;;9.67;100.00
66547;BME280;53400;50.364;14.874;2022-10-19T00:28:58;99606.16;;;9.86;100.00
66547;BME280;53400;50.364;14.874;2022-10-19T00:31:24;99612.19;;;9.75;100.00
66547;BME280;53400;50.364;14.874;2022-10-19T00:33:51;99605.75;;;9.82;100.00
66547;BME280;53400;50.364;14.874;2022-10-19T00:36:19;99604.75;;;9.83;100.00
66547;BME280;53400;50.364;14.874;2022-10-19T00:38:46;99618.06;;;9.90;100.00
66547;BME280;53400;50.364;14.874;2022-10-19T00:41:14;99610.91;;;9.84;100.00
66547;BME280;53400;50.364;14.874;2022-10-19T00:43:52;99603.66;;;9.91;100.00
66547;BME280;53400;50.364;14.874;2022-10-19T00:46:18;99608.41;;;9.89;100.00
66547;BME280;53400;50.364;14.874;2022-10-19T00:48:44;99610.31;;;10.07;100.00
66547;BME280;53400;50.364;14.874;2022-10-19T00:51:10;99613.16;;;10.12;100.00
66547;BME280;53400;50.364;14.874;2022-10-19T00:53:37;99611.38;;;10.06;100.00
66547;BME280;53400;50.364;14.874;2022-10-19T00:56:06;99606.78;;;10.13;100.00
66547;BME280;53400;50.364;14.874;2022-10-19T00:58:36;99607.53;;;10.27;100.00
66547;BME280;53400;50.364;14.874;2022-10-19T01:01:03;99596.56;;;10.35;100.00
66547;BME280;53400;50.364;14.874;2022-10-19T01:03:30;99594.31;;;10.32;100.00
66547;BME280;53400;50.364;14.874;2022-10-19T01:05:56;99591.84;;;10.30;100.00
66547;BME280;53400;50.364;14.874;2022-10-19T01:08:22;99580.50;;;10.35;100.00
66547;BME280;53400;50.364;14.874;2022-10-19T01:10:55;99583.31;;;10.40;100.00
66547;BME280;53400;50.364;14.874;2022-10-19T01:13:32;99582.88;;;10.43;100.00
66547;BME280;53400;50.364;14.874;2022-10-19T01:16:10;99581.72;;;10.57;100.00
66547;BME280;53400;50.364;14.874;2022-10-19T01:18:43;99575.31;;;10.59;100.00
66547;BME280;53400;50.364;14.874;2022-10-19T01:21:21;99579.31;;;10.68;100.00
66547;BME280;53400;50.364;14.874;2022-10-19T01:24:15;99578.38;;;10.62;100.00
66547;BME280;53400;50.364;14.874;2022-10-19T01:27:31;99573.75;;;10.51;100.00
66547;BME280;53400;50.364;14.874;2022-10-19T01:30:05;99571.06;;;10.26;100.00
66547;BME280;53400;50.364;14.874;2022-10-19T01:32:39;99572.13;;;10.50;100.00
66547;BME280;53400;50.364;14.874;2022-10-19T01:35:12;99577.78;;;10.78;100.00
66547;BME280;53400;50.364;14.874;2022-10-19T01:37:46;99576.59;;;10.74;100.00
66547;BME280;53400;50.364;14.874;2022-10-19T01:40:19;99579.94;;;10.70;100.00
66547;BME280;53400;50.364;14.874;2022-10-19T01:42:57;99576.88;;;10.48;100.00
66547;BME280;53400;50.364;14.874;2022-10-19T01:45:28;99568.22;;;10.21;100.00
66547;BME280;53400;50.364;14.874;2022-10-19T01:48:01;99574.22;;;10.16;100.00
66547;BME280;53400;50.364;14.874;2022-10-19T01:50:31;99573.72;;;10.01;100.00
66547;BME280;53400;50.364;14.874;2022-10-19T01:53:02;99582.38;;;10.03;100.00
66547;BME280;53400;50.364;14.874;2022-10-19T01:55:30;99571.59;;;10.09;100.00
66547;BME280;53400;50.364;14.874;2022-10-19T01:57:59;99570.34;;;10.12;100.00
66547;BME280;53400;50.364;14.874;2022-10-19T02:00:28;99565.81;;;10.13;100.00
66547;BME280;53400;50.364;14.874;2022-10-19T02:02:57;99567.97;;;10.22;100.00
66547;BME280;53400;50.364;14.874;2022-10-19T02:05:29;99570.47;;;10.24;100.00
66547;BME280;53400;50.364;14.874;2022-10-19T02:07:58;99559.97;;;9.97;100.00
66547;BME280;53400;50.364;14.874;2022-10-19T02:10:26;99562.25;;;9.94;100.00
66547;BME280;53400;50.364;14.874;2022-10-19T02:12:54;99569.16;;;10.08;100.00
66547;BME280;53400;50.364;14.874;2022-10-19T02:15:22;99563.75;;;10.15;100.00
66547;BME280;53400;50.364;14.874;2022-10-19T02:17:53;99558.38;;;10.15;100.00
66547;BME280;53400;50.364;14.874;2022-10-19T02:20:22;99554.47;;;10.17;100.00
66547;BME280;53400;50.364;14.874;2022-10-19T02:22:48;99551.59;;;10.12;100.00
66547;BME280;53400;50.364;14.874;2022-10-19T02:25:14;99555.09;;;10.13;100.00
66547;BME280;53400;50.364;14.874;2022-10-19T02:27:41;99553.53;;;10.05;100.00
66547;BME280;53400;50.364;14.874;2022-10-19T02:30:08;99551.13;;;9.97;100.00
66547;BME280;53400;50.364;14.874;2022-10-19T02:32:35;99556.41;;;10.03;100.00
66547;BME280;53400;50.364;14.874;2022-10-19T02:35:03;99548.56;;;9.83;100.00
66547;BME280;53400;50.364;14.874;2022-10-19T02:37:29;99541.41;;;9.77;100.00
66547;BME280;53400;50.364;14.874;2022-10-19T02:39:55;99547.75;;;9.83;100.00
66547;BME280;53400;50.364;14.874;2022-10-19T02:42:27;99540.19;;;9.73;100.00
66547;BME280;53400;50.364;14.874;2022-10-19T02:44:57;99543.50;;;9.69;100.00
66547;BME280;53400;50.364;14.874;2022-10-19T02:47:26;99549.84;;;9.74;100.00
66547;BME280;53400;50.364;14.874;2022-10-19T02:49:54;99545.44;;;9.55;100.00
66547;BME280;53400;50.364;14.874;2022-10-19T02:52:21;99559.72;;;9.74;100.00
66547;BME280;53400;50.364;14.874;2022-10-19T02:54:47;99550.22;;;9.46;100.00
66547;BME280;53400;50.364;14.874;2022-10-19T02:57:15;99551.84;;;9.54;100.00
66547;BME280;53400;50.364;14.874;2022-10-19T02:59:41;99545.81;;;9.65;100.00
66547;BME280;53400;50.364;14.874;2022-10-19T03:02:07;99546.44;;;9.60;100.00
66547;BME280;53400;50.364;14.874;2022-10-19T03:04:34;99545.88;;;9.52;100.00
66547;BME280;53400;50.364;14.874;2022-10-19T03:06:59;99543.19;;;9.52;100.00
66547;BME280;53400;50.364;14.874;2022-10-19T03:09:27;99542.84;;;9.41;100.00
66547;BME280;53400;50.364;14.874;2022-10-19T03:11:54;99551.09;;;9.40;100.00
66547;BME280;53400;50.364;14.874;2022-10-19T03:14:20;99545.09;;;9.45;100.00
66547;BME280;53400;50.364;14.874;2022-10-19T03:16:46;99539.50;;;9.53;100.00
66547;BME280;53400;50.364;14.874;2022-10-19T03:19:12;99540.81;;;9.44;100.00
66547;BME280;53400;50.364;14.874;2022-10-19T03:21:38;99543.19;;;9.52;100.00
66547;BME280;53400;50.364;14.874;2022-10-19T03:24:05;99538.50;;;9.47;100.00
66547;BME280;53400;50.364;14.874;2022-10-19T03:26:32;99539.56;;;9.39;100.00
66547;BME280;53400;50.364;14.874;2022-10-19T03:28:58;99536.59;;;9.54;100.00
66547;BME280;53400;50.364;14.874;2022-10-19T03:31:24;99537.84;;;9.52;100.00
66547;BME280;53400;50.364;14.874;2022-10-19T03:33:51;99537.78;;;9.90;100.00
66547;BME280;53400;50.364;14.874;2022-10-19T03:36:21;99544.22;;;9.82;100.00
66547;BME280;53400;50.364;14.874;2022-10-19T03:38:49;99542.28;;;9.64;100.00
66547;BME280;53400;50.364;14.874;2022-10-19T03:41:15;99552.91;;;9.78;100.00
66547;BME280;53400;50.364;14.874;2022-10-19T03:43:42;99551.91;;;9.72;100.00
66547;BME280;53400;50.364;14.874;2022-10-19T03:46:08;99556.31;;;9.60;100.00
66547;BME280;53400;50.364;14.874;2022-10-19T03:48:35;99549.84;;;9.42;100.00
66547;BME280;53400;50.364;14.874;2022-10-19T03:51:03;99563.16;;;9.49;100.00
66547;BME280;53400;50.364;14.874;2022-10-19T03:53:29;99560.72;;;9.48;100.00
66547;BME280;53400;50.364;14.874;2022-10-19T03:56:00;99555.13;;;9.56;100.00
66547;BME280;53400;50.364;14.874;2022-10-19T03:58:26;99552.41;;;9.24;100.00
66547;BME280;53400;50.364;14.874;2022-10-19T04:00:53;99561.84;;;9.27;100.00
66547;BME280;53400;50.364;14.874;2022-10-19T04:03:19;99560.09;;;9.07;100.00
66547;BME280;53400;50.364;14.874;2022-10-19T04:05:45;99559.50;;;9.05;100.00
66547;BME280;53400;50.364;14.874;2022-10-19T04:08:11;99563.44;;;8.96;100.00
66547;BME280;53400;50.364;14.874;2022-10-19T04:10:37;99571.91;;;8.80;100.00
66547;BME280;53400;50.364;14.874;2022-10-19T04:13:03;99569.03;;;8.75;100.00
66547;BME280;53400;50.364;14.874;2022-10-19T04:15:28;99570.09;;;8.73;100.00
66547;BME280;53400;50.364;14.874;2022-10-19T04:17:56;99565.16;;;8.64;100.00
66547;BME280;53400;50.364;14.874;2022-10-19T04:20:21;99566.00;;;8.38;100.00
66547;BME280;53400;50.364;14.874;2022-10-19T04:22:48;99560.28;;;8.41;100.00
66547;BME280;53400;50.364;14.874;2022-10-19T04:25:13;99565.00;;;8.25;100.00
66547;BME280;53400;50.364;14.874;2022-10-19T04:27:39;99570.53;;;8.24;100.00
66547;BME280;53400;50.364;14.874;2022-10-19T04:30:06;99573.41;;;8.29;100.00
66547;BME280;53400;50.364;14.874;2022-10-19T04:32:32;99574.66;;;8.13;100.00
66547;BME280;53400;50.364;14.874;2022-10-19T04:34:59;99573.22;;;7.97;100.00
66547;BME280;53400;50.364;14.874;2022-10-19T04:37:25;99577.09;;;8.01;100.00
66547;BME280;53400;50.364;14.874;2022-10-19T04:39:51;99577.09;;;8.01;100.00
66547;BME280;53400;50.364;14.874;2022-10-19T04:42:17;99588.56;;;7.82;100.00
66547;BME280;53400;50.364;14.874;2022-10-19T04:44:43;99587.56;;;8.03;100.00
66547;BME280;53400;50.364;14.874;2022-10-19T04:47:09;99580.00;;;8.07;100.00
66547;BME280;53400;50.364;14.874;2022-10-19T04:49:34;99578.16;;;8.00;100.00
66547;BME280;53400;50.364;14.874;2022-10-19T04:52:02;99579.38;;;8.04;100.00
66547;BME280;53400;50.364;14.874;2022-10-19T04:54:28;99577.31;;;8.07;100.00
66547;BME280;53400;50.364;14.874;2022-10-19T04:56:54;99573.19;;;7.91;100.00
66547;BME280;53400;50.364;14.874;2022-10-19T04:59:19;99573.09;;;8.90;100.00
66547;BME280;53400;50.364;14.874;2022-10-19T05:01:45;99573.19;;;8.37;100.00
66547;BME280;53400;50.364;14.874;2022-10-19T05:04:11;99574.59;;;8.66;100.00
66547;BME280;53400;50.364;14.874;2022-10-19T05:06:37;99584.69;;;8.51;100.00
66547;BME280;53400;50.364;14.874;2022-10-19T05:09:05;99584.50;;;8.46;100.00
66547;BME280;53400;50.364;14.874;2022-10-19T05:11:31;99575.88;;;8.44;100.00
66547;BME280;53400;50.364;14.874;2022-10-19T05:13:57;99589.22;;;8.44;100.00
66547;BME280;53400;50.364;14.874;2022-10-19T05:16:23;99579.16;;;8.46;100.00
66547;BME280;53400;50.364;14.874;2022-10-19T05:18:52;99577.91;;;8.48;100.00
66547;BME280;53400;50.364;14.874;2022-10-19T05:21:18;99574.84;;;8.32;100.00
66547;BME280;53400;50.364;14.874;2022-10-19T05:23:49;99577.31;;;8.46;100.00
66547;BME280;53400;50.364;14.874;2022-10-19T05:26:18;99584.28;;;8.47;100.00
66547;BME280;53400;50.364;14.874;2022-10-19T05:28:47;99574.00;;;8.58;100.00
66547;BME280;53400;50.364;14.874;2022-10-19T05:31:15;99579.53;;;8.69;100.00
66547;BME280;53400;50.364;14.874;2022-10-19T05:33:42;99577.41;;;8.91;100.00
66547;BME280;53400;50.364;14.874;2022-10-19T05:36:13;99577.66;;;8.70;100.00
66547;BME280;53400;50.364;14.874;2022-10-19T05:38:39;99578.66;;;8.82;100.00
66547;BME280;53400;50.364;14.874;2022-10-19T05:41:06;99578.94;;;8.67;100.00
66547;BME280;53400;50.364;14.874;2022-10-19T05:43:33;99578.94;;;8.54;100.00
66547;BME280;53400;50.364;14.874;2022-10-19T05:46:02;99586.75;;;8.56;100.00
66547;BME280;53400;50.364;14.874;2022-10-19T05:48:28;99585.94;;;8.42;100.00
66547;BME280;53400;50.364;14.874;2022-10-19T05:50:57;99586.34;;;8.45;100.00
66547;BME280;53400;50.364;14.874;2022-10-19T05:53:23;99588.81;;;8.47;100.00
66547;BME280;53400;50.364;14.874;2022-10-19T05:55:49;99590.44;;;8.55;100.00
66547;BME280;53400;50.364;14.874;2022-10-19T05:58:15;99586.56;;;8.50;100.00
66547;BME280;53400;50.364;14.874;2022-10-19T06:00:42;99598.25;;;8.43;100.00
66547;BME280;53400;50.364;14.874;2022-10-19T06:03:08;99593.72;;;8.57;100.00
66547;BME280;53400;50.364;14.874;2022-10-19T06:05:35;99596.22;;;8.58;100.00
66547;BME280;53400;50.364;14.874;2022-10-19T06:08:00;99599.69;;;8.59;100.00
66547;BME280;53400;50.364;14.874;2022-10-19T06:10:26;99602.53;;;8.64;100.00
66547;BME280;53400;50.364;14.874;2022-10-19T06:12:52;99602.13;;;8.67;100.00
66547;BME280;53400;50.364;14.874;2022-10-19T06:15:18;99600.28;;;8.67;100.00
66547;BME280;53400;50.364;14.874;2022-10-19T06:17:45;99605.38;;;8.82;100.00
66547;BME280;53400;50.364;14.874;2022-10-19T06:20:11;99608.06;;;8.76;100.00
66547;BME280;53400;50.364;14.874;2022-10-19T06:22:37;99612.34;;;8.90;100.00
66547;BME280;53400;50.364;14.874;2022-10-19T06:25:04;99616.28;;;8.81;100.00
66547;BME280;53400;50.364;14.874;2022-10-19T06:27:30;99615.66;;;8.79;100.00
66547;BME280;53400;50.364;14.874;2022-10-19T06:29:56;99620.94;;;9.05;100.00
66547;BME280;53400;50.364;14.874;2022-10-19T06:32:22;99617.47;;;8.98;100.00
66547;BME280;53400;50.364;14.874;2022-10-19T06:34:50;99619.13;;;8.99;100.00
66547;BME280;53400;50.364;14.874;2022-10-19T06:37:15;99623.03;;;8.96;100.00
66547;BME280;53400;50.364;14.874;2022-10-19T06:39:41;99639.28;;;8.88;100.00
66547;BME280;53400;50.364;14.874;2022-10-19T06:42:07;99637.00;;;8.99;100.00
66547;BME280;53400;50.364;14.874;2022-10-19T06:44:34;99646.41;;;9.14;100.00
66547;BME280;53400;50.364;14.874;2022-10-19T06:47:00;99654.38;;;9.28;100.00
66547;BME280;53400;50.364;14.874;2022-10-19T06:49:26;99643.41;;;9.42;100.00
66547;BME280;53400;50.364;14.874;2022-10-19T06:51:53;99658.34;;;9.63;100.00
66547;BME280;53400;50.364;14.874;2022-10-19T06:54:20;99661.13;;;9.82;100.00
66547;BME280;53400;50.364;14.874;2022-10-19T06:56:45;99669.91;;;9.96;100.00
66547;BME280;53400;50.364;14.874;2022-10-19T06:59:11;99667.88;;;9.91;100.00
66547;BME280;53400;50.364;14.874;2022-10-19T07:01:38;99672.00;;;9.87;100.00
66547;BME280;53400;50.364;14.874;2022-10-19T07:04:04;99670.53;;;9.91;100.00
66547;BME280;53400;50.364;14.874;2022-10-19T07:06:30;99678.28;;;10.06;100.00
66547;BME280;53400;50.364;14.874;2022-10-19T07:08:57;99675.13;;;10.16;100.00
66547;BME280;53400;50.364;14.874;2022-10-19T07:11:23;99675.06;;;10.29;100.00
66547;BME280;53400;50.364;14.874;2022-10-19T07:13:51;99687.25;;;10.18;100.00
66547;BME280;53400;50.364;14.874;2022-10-19T07:16:17;99674.03;;;10.30;100.00
66547;BME280;53400;50.364;14.874;2022-10-19T07:18:44;99677.31;;;10.32;100.00
66547;BME280;53400;50.364;14.874;2022-10-19T07:21:11;99681.56;;;10.40;100.00
66547;BME280;53400;50.364;14.874;2022-10-19T07:23:40;99690.16;;;10.48;100.00
66547;BME280;53400;50.364;14.874;2022-10-19T07:26:10;99694.31;;;10.44;100.00
66547;BME280;53400;50.364;14.874;2022-10-19T07:28:37;99692.34;;;10.58;100.00
66547;BME280;53400;50.364;14.874;2022-10-19T07:31:05;99697.31;;;10.54;100.00
66547;BME280;53400;50.364;14.874;2022-10-19T07:33:32;99695.91;;;10.52;100.00
66547;BME280;53400;50.364;14.874;2022-10-19T07:35:59;99702.13;;;10.46;100.00
66547;BME280;53400;50.364;14.874;2022-10-19T07:38:25;99700.81;;;10.55;100.00
66547;BME280;53400;50.364;14.874;2022-10-19T07:40:58;99709.56;;;10.44;100.00
66547;BME280;53400;50.364;14.874;2022-10-19T07:43:26;99703.19;;;10.45;100.00
66547;BME280;53400;50.364;14.874;2022-10-19T07:45:56;99700.69;;;10.50;100.00
66547;BME280;53400;50.364;14.874;2022-10-19T07:48:23;99700.88;;;10.48;98.92
66547;BME280;53400;50.364;14.874;2022-10-19T07:50:49;99700.25;;;10.46;98.88
66547;BME280;53400;50.364;14.874;2022-10-19T07:53:15;99704.19;;;10.44;98.93
66547;BME280;53400;50.364;14.874;2022-10-19T07:55:41;99702.19;;;10.64;98.99
66547;BME280;53400;50.364;14.874;2022-10-19T07:58:06;99701.66;;;10.81;98.20
66547;BME280;53400;50.364;14.874;2022-10-19T08:00:34;99704.88;;;11.08;96.37
66547;BME280;53400;50.364;14.874;2022-10-19T08:02:59;99707.06;;;10.99;95.27
66547;BME280;53400;50.364;14.874;2022-10-19T08:05:25;99707.28;;;11.16;94.15
66547;BME280;53400;50.364;14.874;2022-10-19T08:07:51;99701.72;;;11.17;95.85
66547;BME280;53400;50.364;14.874;2022-10-19T08:10:17;99701.19;;;11.27;94.76
66547;BME280;53400;50.364;14.874;2022-10-19T08:12:43;99707.81;;;11.24;93.37
66547;BME280;53400;50.364;14.874;2022-10-19T08:15:09;99707.00;;;11.24;91.52
66547;BME280;53400;50.364;14.874;2022-10-19T08:17:36;99702.00;;;11.28;92.62
66547;BME280;53400;50.364;14.874;2022-10-19T08:20:04;99713.53;;;11.28;87.81
66547;BME280;53400;50.364;14.874;2022-10-19T08:22:30;99704.56;;;10.97;88.52
66547;BME280;53400;50.364;14.874;2022-10-19T08:24:56;99701.97;;;10.91;89.81
66547;BME280;53400;50.364;14.874;2022-10-19T08:27:22;99693.94;;;11.09;86.15
66547;BME280;53400;50.364;14.874;2022-10-19T08:29:48;99693.44;;;11.37;87.18
66547;BME280;53400;50.364;14.874;2022-10-19T08:32:14;99703.13;;;11.38;84.38
66547;BME280;53400;50.364;14.874;2022-10-19T08:34:41;99702.50;;;11.73;86.05
66547;BME280;53400;50.364;14.874;2022-10-19T08:37:07;99696.41;;;11.66;84.97
66547;BME280;53400;50.364;14.874;2022-10-19T08:39:34;99699.16;;;11.78;83.30
66547;BME280;53400;50.364;14.874;2022-10-19T08:42:02;99699.66;;;11.86;82.75
66547;BME280;53400;50.364;14.874;2022-10-19T08:47:48;99695.09;;;12.17;80.89
66547;BME280;53400;50.364;14.874;2022-10-19T08:50:20;99691.78;;;12.33;80.37
66547;BME280;53400;50.364;14.874;2022-10-19T08:52:50;99698.75;;;11.92;80.66
66547;BME280;53400;50.364;14.874;2022-10-19T08:55:27;99704.06;;;12.11;81.21
66547;BME280;53400;50.364;14.874;2022-10-19T08:58:01;99707.88;;;11.91;77.82
66547;BME280;53400;50.364;14.874;2022-10-19T09:00:37;99696.34;;;11.54;78.90
66547;BME280;53400;50.364;14.874;2022-10-19T09:03:14;99700.56;;;11.62;78.27
66547;BME280;53400;50.364;14.874;2022-10-19T09:05:45;99699.91;;;11.66;77.37
66547;BME280;53400;50.364;14.874;2022-10-19T09:08:14;99694.69;;;11.53;76.88
66547;BME280;53400;50.364;14.874;2022-10-19T09:10:44;99698.88;;;11.31;76.96
66547;BME280;53400;50.364;14.874;2022-10-19T09:13:16;99697.31;;;11.41;77.22
66547;BME280;53400;50.364;14.874;2022-10-19T09:15:46;99703.34;;;11.55;74.72
66547;BME280;53400;50.364;14.874;2022-10-19T09:18:18;99691.72;;;11.24;73.17
66547;BME280;53400;50.364;14.874;2022-10-19T09:20:48;99689.28;;;11.23;72.03
66547;BME280;53400;50.364;14.874;2022-10-19T09:23:20;99692.88;;;11.65;75.06
66547;BME280;53400;50.364;14.874;2022-10-19T09:25:47;99694.66;;;11.71;74.20
66547;BME280;53400;50.364;14.874;2022-10-19T09:28:25;99695.72;;;11.70;73.79
66547;BME280;53400;50.364;14.874;2022-10-19T09:30:58;99700.63;;;11.74;73.07
66547;BME280;53400;50.364;14.874;2022-10-19T09:33:27;99700.41;;;11.75;73.53
66547;BME280;53400;50.364;14.874;2022-10-19T09:35:56;99705.81;;;11.57;74.21
66547;BME280;53400;50.364;14.874;2022-10-19T09:38:26;99702.81;;;11.65;74.72
66547;BME280;53400;50.364;14.874;2022-10-19T09:40:52;99708.84;;;11.79;75.25
66547;BME280;53400;50.364;14.874;2022-10-19T09:43:18;99713.94;;;11.87;75.40
66547;BME280;53400;50.364;14.874;2022-10-19T09:45:49;99700.31;;;12.00;74.88
66547;BME280;53400;50.364;14.874;2022-10-19T09:48:32;99705.63;;;11.88;74.03
66547;BME280;53400;50.364;14.874;2022-10-19T09:51:02;99706.50;;;11.82;75.19
66547;BME280;53400;50.364;14.874;2022-10-19T09:53:35;99709.38;;;12.18;74.35
66547;BME280;53400;50.364;14.874;2022-10-19T09:56:04;99707.72;;;12.16;73.65
66547;BME280;53400;50.364;14.874;2022-10-19T09:58:31;99696.81;;;12.42;72.01
66547;BME280;53400;50.364;14.874;2022-10-19T10:00:58;99699.31;;;12.13;69.79
66547;BME280;53400;50.364;14.874;2022-10-19T10:03:27;99698.13;;;12.39;68.33
66547;BME280;53400;50.364;14.874;2022-10-19T10:05:55;99705.34;;;12.50;67.53
66547;BME280;53400;50.364;14.874;2022-10-19T10:08:26;99701.44;;;12.23;66.53
66547;BME280;53400;50.364;14.874;2022-10-19T10:11:01;99695.16;;;12.29;66.09
66547;BME280;53400;50.364;14.874;2022-10-19T10:13:29;99697.25;;;12.27;66.01
66547;BME280;53400;50.364;14.874;2022-10-19T10:15:58;99697.19;;;12.03;65.34
66547;BME280;53400;50.364;14.874;2022-10-19T10:18:25;99703.75;;;12.19;66.09
66547;BME280;53400;50.364;14.874;2022-10-19T10:21:00;99691.97;;;12.08;68.17
66547;BME280;53400;50.364;14.874;2022-10-19T10:23:30;99696.31;;;11.91;66.39
66547;BME280;53400;50.364;14.874;2022-10-19T10:25:58;99692.81;;;11.90;67.03
66547;BME280;53400;50.364;14.874;2022-10-19T10:28:26;99706.81;;;11.74;68.38
66547;BME280;53400;50.364;14.874;2022-10-19T10:30:54;99709.66;;;11.79;68.10
66547;BME280;53400;50.364;14.874;2022-10-19T10:33:25;99705.78;;;11.93;68.56
66547;BME280;53400;50.364;14.874;2022-10-19T10:35:54;99713.44;;;12.08;69.27
66547;BME280;53400;50.364;14.874;2022-10-19T10:38:24;99716.28;;;12.25;69.10
66547;BME280;53400;50.364;14.874;2022-10-19T10:40:54;99706.50;;;12.01;67.15
66547;BME280;53400;50.364;14.874;2022-10-19T10:43:26;99711.47;;;12.15;66.76
66547;BME280;53400;50.364;14.874;2022-10-19T10:45:54;99706.19;;;12.09;69.82
66547;BME280;53400;50.364;14.874;2022-10-19T10:48:28;99706.06;;;12.04;68.51
66547;BME280;53400;50.364;14.874;2022-10-19T10:50:55;99712.78;;;12.25;66.49
66547;BME280;53400;50.364;14.874;2022-10-19T10:53:35;99705.69;;;12.30;66.03
66547;BME280;53400;50.364;14.874;2022-10-19T10:56:05;99709.75;;;12.21;66.08
66547;BME280;53400;50.364;14.874;2022-10-19T10:58:38;99703.19;;;12.29;64.75
66547;BME280;53400;50.364;14.874;2022-10-19T11:01:19;99705.00;;;12.47;65.37
66547;BME280;53400;50.364;14.874;2022-10-19T11:03:50;99706.13;;;12.27;64.97
66547;BME280;53400;50.364;14.874;2022-10-19T11:06:20;99707.00;;;12.51;63.88
66547;BME280;53400;50.364;14.874;2022-10-19T11:08:50;99712.06;;;12.71;62.91
66547;BME280;53400;50.364;14.874;2022-10-19T11:11:21;99703.75;;;12.61;62.27
66547;BME280;53400;50.364;14.874;2022-10-19T11:13:51;99703.38;;;12.46;63.99
66547;BME280;53400;50.364;14.874;2022-10-19T11:16:22;99703.69;;;12.37;64.11
66547;BME280;53400;50.364;14.874;2022-10-19T11:18:52;99697.56;;;12.60;64.53
66547;BME280;53400;50.364;14.874;2022-10-19T11:21:23;99709.31;;;12.36;66.22
66547;BME280;53400;50.364;14.874;2022-10-19T11:24:00;99702.03;;;12.25;64.69
66547;BME280;53400;50.364;14.874;2022-10-19T11:26:41;99702.13;;;12.18;66.53
66547;BME280;53400;50.364;14.874;2022-10-19T11:29:23;99701.94;;;12.31;66.72
66547;BME280;53400;50.364;14.874;2022-10-19T11:31:54;99700.16;;;12.25;67.66
66547;BME280;53400;50.364;14.874;2022-10-19T11:34:35;99700.75;;;12.27;67.56
66547;BME280;53400;50.364;14.874;2022-10-19T11:37:09;99707.16;;;12.26;68.42
66547;BME280;53400;50.364;14.874;2022-10-19T11:39:46;99695.88;;;12.36;67.33
66547;BME280;53400;50.364;14.874;2022-10-19T11:42:20;99693.56;;;12.51;66.86
66547;BME280;53400;50.364;14.874;2022-10-19T11:44:59;99698.03;;;12.57;65.56
66547;BME280;53400;50.364;14.874;2022-10-19T11:47:47;99693.56;;;12.51;65.93
66547;BME280;53400;50.364;14.874;2022-10-19T11:50:29;99692.06;;;12.55;65.34
66547;BME280;53400;50.364;14.874;2022-10-19T11:53:01;99697.25;;;12.38;65.61
66547;BME280;53400;50.364;14.874;2022-10-19T11:55:36;99692.50;;;12.40;65.62
66547;BME280;53400;50.364;14.874;2022-10-19T11:58:21;99696.63;;;12.55;65.39
66547;BME280;53400;50.364;14.874;2022-10-19T12:00:59;99693.78;;;12.50;65.53
66547;BME280;53400;50.364;14.874;2022-10-19T12:03:59;99692.63;;;12.46;65.60
66547;BME280;53400;50.364;14.874;2022-10-19T12:06:33;99695.78;;;12.43;65.15
66547;BME280;53400;50.364;14.874;2022-10-19T12:09:10;99692.53;;;12.10;67.23
66547;BME280;53400;50.364;14.874;2022-10-19T12:11:51;99690.47;;;12.24;67.35
66547;BME280;53400;50.364;14.874;2022-10-19T12:14:24;99687.84;;;12.48;66.95
66547;BME280;53400;50.364;14.874;2022-10-19T12:16:54;99684.25;;;12.54;67.63
66547;BME280;53400;50.364;14.874;2022-10-19T12:19:23;99682.59;;;12.53;67.25
66547;BME280;53400;50.364;14.874;2022-10-19T12:21:52;99679.31;;;12.74;67.98
66547;BME280;53400;50.364;14.874;2022-10-19T12:24:22;99671.53;;;12.84;66.08
66547;BME280;53400;50.364;14.874;2022-10-19T12:26:50;99667.63;;;13.04;66.40
66547;BME280;53400;50.364;14.874;2022-10-19T12:29:22;99670.22;;;12.99;68.73
66547;BME280;53400;50.364;14.874;2022-10-19T12:31:50;99667.97;;;13.19;66.62
66547;BME280;53400;50.364;14.874;2022-10-19T12:34:25;99663.09;;;12.93;66.09
66547;BME280;53400;50.364;14.874;2022-10-19T12:36:57;99670.13;;;12.82;65.39
66547;BME280;53400;50.364;14.874;2022-10-19T12:39:30;99664.75;;;12.82;64.67
66547;BME280;53400;50.364;14.874;2022-10-19T12:42:03;99674.69;;;12.81;65.06
66547;BME280;53400;50.364;14.874;2022-10-19T12:45:17;99671.63;;;12.78;65.76
66547;BME280;53400;50.364;14.874;2022-10-19T12:51:13;99659.94;;;12.72;65.63
66547;BME280;53400;50.364;14.874;2022-10-19T12:53:42;99667.06;;;12.90;64.95
66547;BME280;53400;50.364;14.874;2022-10-19T12:56:14;99672.34;;;12.85;64.79
66547;BME280;53400;50.364;14.874;2022-10-19T12:58:49;99672.31;;;12.73;64.66
66547;BME280;53400;50.364;14.874;2022-10-19T13:01:21;99675.59;;;12.52;65.66
66547;BME280;53400;50.364;14.874;2022-10-19T13:03:50;99670.22;;;12.52;65.93
66547;BME280;53400;50.364;14.874;2022-10-19T13:06:29;99669.97;;;12.65;65.33